createdAt,value
2022-08-19T00:01:30.880Z,1.00
2022-08-19T00:06:40.581Z,1.00
2022-08-19T00:11:48.097Z,1.00
2022-08-19T00:16:56.450Z,1.00
2022-08-19T00:22:03.745Z,1.10
2022-08-19T00:27:25.927Z,1.10
2022-08-19T00:32:19.801Z,1.07
2022-08-19T00:37:27.911Z,1.10
2022-08-19T00:42:35.216Z,1.53
2022-08-19T00:47:42.686Z,1.40
2022-08-19T00:52:52.577Z,1.47
2022-08-19T00:58:02.766Z,1.47
2022-08-19T01:03:12.751Z,1.40
2022-08-19T01:08:22.024Z,1.70
2022-08-19T01:13:48.993Z,1.40
2022-08-19T01:18:43.120Z,1.30
2022-08-19T01:23:50.457Z,1.60
2022-08-19T01:29:01.026Z,1.17
2022-08-19T01:34:09.674Z,1.77
2022-08-19T01:39:20.454Z,1.10
2022-08-19T01:44:27.690Z,1.13
2022-08-19T01:49:34.818Z,3.30
2022-08-19T01:54:42.075Z,2.53
2022-08-19T01:59:49.202Z,1.00
2022-08-19T02:04:56.389Z,1.27
2022-08-19T02:10:09.380Z,1.47
2022-08-19T02:15:15.143Z,0.90
2022-08-19T02:20:22.070Z,1.10
2022-08-19T02:25:28.962Z,0.87
2022-08-19T02:30:36.410Z,1.80
2022-08-19T02:35:46.322Z,1.20
2022-08-19T02:40:56.387Z,1.00
2022-08-19T02:46:04.513Z,2.03
2022-08-19T02:51:12.970Z,0.77
2022-08-19T02:56:54.252Z,0.90
2022-08-19T03:02:02.257Z,0.90
2022-08-19T03:07:10.714Z,1.00
2022-08-19T03:12:17.634Z,1.00
2022-08-19T03:17:24.665Z,0.87
2022-08-19T03:22:31.571Z,1.10
2022-08-19T03:27:38.437Z,0.90
2022-08-19T03:32:45.722Z,1.43
2022-08-19T03:37:54.416Z,1.07
2022-08-19T03:43:02.121Z,1.30
2022-08-19T03:48:09.896Z,1.20
2022-08-19T03:53:17.045Z,1.10
2022-08-19T03:58:25.106Z,1.13
2022-08-19T04:03:32.050Z,1.27
2022-08-19T04:08:39.013Z,1.30
2022-08-19T04:13:46.174Z,1.10
2022-08-19T04:18:53.409Z,0.80
2022-08-19T04:24:00.850Z,1.00
2022-08-19T04:29:12.703Z,1.00
2022-08-19T04:34:24.601Z,0.90
2022-08-19T04:39:34.720Z,1.37
2022-08-19T04:44:46.204Z,0.90
2022-08-19T04:49:51.407Z,2.70
2022-08-19T04:54:58.317Z,2.03
2022-08-19T05:00:06.139Z,2.17
2022-08-19T05:05:13.659Z,1.37
2022-08-19T05:10:22.046Z,0.90
2022-08-19T05:15:29.025Z,0.93
2022-08-19T05:20:37.555Z,1.00
2022-08-19T05:25:45.732Z,0.90
2022-08-19T05:30:52.671Z,0.80
2022-08-19T05:35:59.881Z,1.77
2022-08-19T05:41:09.710Z,1.37
2022-08-19T05:46:20.012Z,0.80
2022-08-19T05:51:29.384Z,1.20
2022-08-19T05:56:39.290Z,1.50
2022-08-19T06:01:50.753Z,1.90
2022-08-19T06:06:58.844Z,0.70
2022-08-19T06:12:06.291Z,1.20
2022-08-19T06:17:14.191Z,2.60
2022-08-19T06:22:21.239Z,1.00
2022-08-19T06:27:28.401Z,3.00
2022-08-19T06:32:37.853Z,0.93
2022-08-19T06:37:44.361Z,1.50
2022-08-19T06:42:54.354Z,0.80
2022-08-19T06:48:01.054Z,1.00
2022-08-19T06:53:08.651Z,3.17
2022-08-19T06:58:16.179Z,0.80
2022-08-19T07:03:23.191Z,3.37
2022-08-19T07:08:30.339Z,0.87
2022-08-19T07:13:38.659Z,1.30
2022-08-19T07:18:45.770Z,1.00
2022-08-19T07:23:54.188Z,1.10
2022-08-19T07:29:02.840Z,1.07
2022-08-19T07:34:15.255Z,0.90
2022-08-19T07:39:25.198Z,1.00
2022-08-19T07:44:32.303Z,1.10
2022-08-19T07:49:39.584Z,0.97
2022-08-19T07:54:46.700Z,0.90
2022-08-19T07:59:54.244Z,1.17
2022-08-19T08:05:03.451Z,1.20
2022-08-19T08:10:20.083Z,1.10
2022-08-19T08:15:20.459Z,1.10
2022-08-19T08:20:29.230Z,1.00
2022-08-19T08:25:38.527Z,1.10
2022-08-19T08:30:46.907Z,1.10
2022-08-19T08:35:54.600Z,1.20
2022-08-19T08:41:07.176Z,1.30
2022-08-19T08:46:30.683Z,1.93
2022-08-19T08:51:34.955Z,1.30
2022-08-19T08:56:42.558Z,1.30
2022-08-19T09:01:49.913Z,1.20
2022-08-19T09:06:58.135Z,1.10
2022-08-19T09:12:08.230Z,1.47
2022-08-19T09:17:17.469Z,1.40
2022-08-19T09:22:27.325Z,1.43
2022-08-19T09:27:42.094Z,1.50
2022-08-19T09:32:44.211Z,1.63
2022-08-19T09:37:57.759Z,1.33
2022-08-19T09:43:03.265Z,1.40
2022-08-19T09:48:11.957Z,1.50
2022-08-19T09:53:22.705Z,1.37
2022-08-19T09:58:31.661Z,1.20
2022-08-19T10:03:39.480Z,1.10
2022-08-19T10:08:49.990Z,1.53
2022-08-19T10:13:56.483Z,1.33
2022-08-19T10:19:03.894Z,1.50
2022-08-19T10:24:12.489Z,1.60
2022-08-19T10:29:32.990Z,1.40
2022-08-19T10:34:29.671Z,1.23
2022-08-19T10:39:42.428Z,1.70
2022-08-19T10:44:49.046Z,1.80
2022-08-19T10:49:59.509Z,2.00
2022-08-19T10:55:10.304Z,2.17
2022-08-19T11:00:18.014Z,2.20
2022-08-19T11:05:24.906Z,2.50
2022-08-19T11:10:31.993Z,3.00
2022-08-19T11:15:39.653Z,2.80
2022-08-19T11:20:47.675Z,2.60
2022-08-19T11:25:55.269Z,2.20
2022-08-19T11:31:04.132Z,3.63
2022-08-19T11:36:12.725Z,4.30
2022-08-19T11:41:24.837Z,3.87
2022-08-19T11:46:32.596Z,3.23
2022-08-19T11:51:39.595Z,3.70
2022-08-19T11:56:49.007Z,3.60
2022-08-19T12:01:57.416Z,2.97
2022-08-19T12:07:04.657Z,2.87
2022-08-19T12:12:12.350Z,3.00
2022-08-19T12:17:19.416Z,2.90
2022-08-19T12:22:26.461Z,3.40
2022-08-19T12:27:40.441Z,2.70
2022-08-19T12:32:42.469Z,3.53
2022-08-19T12:37:56.529Z,3.50
2022-08-19T12:42:59.336Z,4.50
2022-08-19T12:48:32.826Z,5.03
2022-08-19T12:53:16.616Z,6.10
2022-08-19T12:58:27.215Z,4.43
2022-08-19T13:03:33.688Z,4.23
2022-08-19T13:08:41.690Z,3.77
2022-08-19T13:13:53.202Z,3.70
2022-08-19T13:19:00.242Z,3.87
2022-08-19T13:24:07.762Z,3.57
2022-08-19T13:29:16.959Z,3.80
2022-08-19T13:34:27.387Z,3.77
2022-08-19T13:39:37.668Z,4.00
2022-08-19T13:44:46.452Z,3.77
2022-08-19T13:49:54.016Z,3.90
2022-08-19T13:55:01.388Z,3.30
2022-08-19T14:00:11.935Z,4.10
2022-08-19T14:05:20.684Z,3.97
2022-08-19T14:10:29.531Z,4.03
2022-08-19T14:15:38.680Z,3.83
2022-08-19T14:20:46.810Z,3.80
2022-08-19T14:25:53.867Z,3.87
2022-08-19T14:31:00.791Z,4.07
2022-08-19T14:36:08.720Z,4.10
2022-08-19T14:41:18.717Z,4.17
2022-08-19T14:46:29.485Z,3.93
2022-08-19T14:51:37.214Z,3.70
2022-08-19T14:56:44.911Z,4.00
2022-08-19T15:01:52.465Z,4.33
2022-08-19T15:07:00.148Z,4.30
2022-08-19T15:12:08.284Z,4.20
2022-08-19T15:17:15.502Z,4.30
2022-08-19T15:22:22.851Z,3.43
2022-08-19T15:27:30.133Z,4.27
2022-08-19T15:32:38.319Z,4.13
2022-08-19T15:37:47.000Z,4.53
2022-08-19T15:42:54.361Z,4.00
2022-08-19T15:48:04.172Z,4.67
2022-08-19T15:53:13.016Z,4.67
2022-08-19T15:58:28.892Z,4.70
2022-08-19T16:03:31.921Z,6.90
2022-08-19T16:08:48.805Z,6.90
2022-08-19T16:13:52.373Z,6.00
2022-08-19T16:19:01.683Z,6.97
2022-08-19T16:24:10.794Z,6.10
2022-08-19T16:29:22.066Z,5.73
2022-08-19T16:34:28.715Z,5.80
2022-08-19T16:39:35.692Z,6.13
2022-08-19T16:44:46.567Z,12.93
2022-08-19T16:49:55.572Z,11.93
2022-08-19T16:55:03.129Z,5.80
2022-08-19T17:00:12.517Z,5.67
2022-08-19T17:05:20.301Z,7.83
2022-08-19T17:10:27.813Z,5.50
2022-08-19T17:15:35.324Z,12.63
2022-08-19T17:20:43.682Z,25.97
2022-08-19T17:25:51.446Z,5.20
2022-08-19T17:30:59.282Z,5.67
2022-08-19T17:36:07.430Z,6.90
2022-08-19T17:41:14.501Z,5.87
2022-08-19T17:46:21.561Z,6.70
2022-08-19T17:51:31.729Z,6.97
2022-08-19T17:56:39.307Z,6.93
2022-08-19T18:01:54.198Z,6.83
2022-08-19T18:06:56.694Z,7.00
2022-08-19T18:12:04.930Z,7.40
2022-08-19T18:17:19.509Z,7.13
2022-08-19T18:22:29.656Z,7.80
2022-08-19T18:27:37.023Z,8.07
2022-08-19T18:32:45.735Z,8.20
2022-08-19T18:37:52.865Z,7.63
2022-08-19T18:43:01.664Z,7.80
2022-08-19T18:48:26.337Z,7.50
2022-08-19T18:53:18.868Z,7.43
2022-08-19T18:58:30.610Z,6.27
2022-08-19T19:03:40.555Z,6.00
2022-08-19T19:08:48.615Z,6.13
2022-08-19T19:13:55.670Z,5.60
2022-08-19T19:19:03.674Z,6.50
2022-08-19T19:24:12.089Z,5.80
2022-08-19T19:29:22.047Z,6.50
2022-08-19T19:34:30.197Z,6.00
2022-08-19T19:39:46.568Z,6.13
2022-08-19T19:44:47.995Z,5.03
2022-08-19T19:55:06.216Z,5.33
2022-08-19T20:00:16.063Z,7.40
2022-08-19T20:05:24.168Z,35.47
2022-08-19T20:10:32.548Z,27.67
2022-08-19T20:15:42.759Z,19.10
2022-08-19T20:20:50.449Z,8.30
2022-08-19T20:25:57.334Z,8.30
2022-08-19T20:31:04.473Z,16.17
2022-08-19T20:36:12.468Z,48.77
2022-08-19T20:41:21.139Z,42.03
2022-08-19T20:46:29.499Z,11.17
2022-08-19T20:51:36.529Z,17.13
2022-08-19T20:56:43.606Z,10.73
2022-08-19T21:01:52.689Z,7.43
2022-08-19T21:06:59.804Z,6.67
2022-08-19T21:12:08.260Z,6.30
2022-08-19T21:17:15.464Z,7.07
2022-08-19T21:22:22.605Z,6.30
2022-08-19T21:27:29.510Z,6.87
2022-08-19T21:32:37.269Z,6.90
2022-08-19T21:37:44.084Z,6.93
2022-08-19T21:42:51.549Z,6.50
2022-08-19T21:47:58.602Z,6.60
2022-08-19T21:53:05.497Z,6.43
2022-08-19T21:58:14.046Z,6.97
2022-08-19T22:03:21.721Z,6.90
2022-08-19T22:08:28.609Z,7.10
2022-08-19T22:13:40.005Z,7.30
2022-08-19T22:18:47.956Z,7.23
2022-08-19T22:23:54.924Z,8.23
2022-08-19T22:29:02.097Z,7.60
2022-08-19T22:34:10.448Z,7.07
2022-08-19T22:39:17.314Z,5.73
2022-08-19T22:44:24.287Z,4.87
2022-08-19T22:49:31.158Z,5.10
2022-08-19T22:54:38.103Z,4.90
2022-08-19T22:59:45.122Z,4.83
2022-08-19T23:04:53.398Z,5.07
2022-08-19T23:10:00.775Z,4.90
2022-08-19T23:15:10.768Z,5.10
2022-08-19T23:20:18.508Z,5.27
2022-08-19T23:25:28.319Z,4.97
2022-08-19T23:30:38.114Z,5.90
2022-08-19T23:35:45.143Z,5.73
2022-08-19T23:40:54.452Z,5.57
2022-08-19T23:46:03.647Z,5.07
2022-08-19T23:51:14.103Z,4.67
2022-08-19T23:56:21.584Z,4.90
